sensor_id;sensor_type;location;lat;lon;timestamp;P1;durP1;ratioP1;P2;durP2;ratioP2
5847;SDS011;8756;49.29324300;8.70599800;2022-12-05T00:01:18;57.33;;;25.17;;
5847;SDS011;8756;49.29324300;8.70599800;2022-12-05T00:03:52;57.13;;;26.23;;
5847;SDS011;8756;49.29324300;8.70599800;2022-12-05T00:06:20;58.23;;;22.93;;
5847;SDS011;8756;49.29324300;8.70599800;2022-12-05T00:08:48;60.63;;;26.43;;
5847;SDS011;8756;49.29324300;8.70599800;2022-12-05T00:11:15;60.03;;;24.13;;
5847;SDS011;8756;49.29324300;8.70599800;2022-12-05T00:13:44;60.03;;;24.30;;
5847;SDS011;8756;49.29324300;8.70599800;2022-12-05T00:16:11;65.80;;;25.97;;
5847;SDS011;8756;49.29324300;8.70599800;2022-12-05T00:18:40;53.57;;;22.93;;
5847;SDS011;8756;49.29324300;8.70599800;2022-12-05T00:21:08;51.90;;;23.43;;
5847;SDS011;8756;49.29324300;8.70599800;2022-12-05T00:23:41;60.10;;;25.07;;
5847;SDS011;8756;49.29324300;8.70599800;2022-12-05T00:26:07;60.57;;;25.33;;
5847;SDS011;8756;49.29324300;8.70599800;2022-12-05T00:28:33;52.10;;;23.70;;
5847;SDS011;8756;49.29324300;8.70599800;2022-12-05T00:31:08;58.60;;;25.87;;
5847;SDS011;8756;49.29324300;8.70599800;2022-12-05T00:33:43;71.63;;;26.90;;
5847;SDS011;8756;49.29324300;8.70599800;2022-12-05T00:36:20;60.13;;;26.20;;
5847;SDS011;8756;49.29324300;8.70599800;2022-12-05T00:38:52;59.70;;;25.17;;
5847;SDS011;8756;49.29324300;8.70599800;2022-12-05T00:41:21;73.70;;;28.30;;
5847;SDS011;8756;49.29324300;8.70599800;2022-12-05T00:43:49;56.57;;;27.47;;
5847;SDS011;8756;49.29324300;8.70599800;2022-12-05T00:46:21;70.03;;;28.20;;
5847;SDS011;8756;49.29324300;8.70599800;2022-12-05T00:48:51;62.43;;;25.20;;
5847;SDS011;8756;49.29324300;8.70599800;2022-12-05T00:51:19;63.37;;;27.63;;
5847;SDS011;8756;49.29324300;8.70599800;2022-12-05T00:53:57;65.73;;;26.33;;
5847;SDS011;8756;49.29324300;8.70599800;2022-12-05T00:56:26;62.90;;;28.33;;
5847;SDS011;8756;49.29324300;8.70599800;2022-12-05T00:59:02;69.30;;;26.07;;
5847;SDS011;8756;49.29324300;8.70599800;2022-12-05T01:01:34;65.40;;;25.70;;
5847;SDS011;8756;49.29324300;8.70599800;2022-12-05T01:04:07;68.73;;;26.60;;
5847;SDS011;8756;49.29324300;8.70599800;2022-12-05T01:06:36;70.20;;;25.40;;
5847;SDS011;8756;49.29324300;8.70599800;2022-12-05T01:09:03;77.57;;;27.30;;
5847;SDS011;8756;49.29324300;8.70599800;2022-12-05T01:11:30;68.53;;;25.60;;
5847;SDS011;8756;49.29324300;8.70599800;2022-12-05T01:13:56;81.43;;;25.27;;
5847;SDS011;8756;49.29324300;8.70599800;2022-12-05T01:18:54;73.53;;;26.03;;
5847;SDS011;8756;49.29324300;8.70599800;2022-12-05T01:21:22;73.17;;;27.13;;
5847;SDS011;8756;49.29324300;8.70599800;2022-12-05T01:23:48;72.13;;;27.20;;
5847;SDS011;8756;49.29324300;8.70599800;2022-12-05T01:26:15;75.67;;;25.60;;
5847;SDS011;8756;49.29324300;8.70599800;2022-12-05T01:28:43;72.03;;;28.40;;
5847;SDS011;8756;49.29324300;8.70599800;2022-12-05T01:31:23;79.90;;;24.73;;
5847;SDS011;8756;49.29324300;8.70599800;2022-12-05T01:33:55;73.07;;;28.57;;
5847;SDS011;8756;49.29324300;8.70599800;2022-12-05T01:36:24;68.50;;;28.60;;
5847;SDS011;8756;49.29324300;8.70599800;2022-12-05T01:38:51;66.40;;;26.80;;
5847;SDS011;8756;49.29324300;8.70599800;2022-12-05T01:41:19;78.83;;;29.23;;
5847;SDS011;8756;49.29324300;8.70599800;2022-12-05T01:43:51;82.43;;;28.63;;
5847;SDS011;8756;49.29324300;8.70599800;2022-12-05T01:46:32;78.30;;;29.37;;
5847;SDS011;8756;49.29324300;8.70599800;2022-12-05T01:49:08;65.23;;;26.57;;
5847;SDS011;8756;49.29324300;8.70599800;2022-12-05T01:51:40;66.50;;;26.83;;
5847;SDS011;8756;49.29324300;8.70599800;2022-12-05T01:54:10;70.37;;;26.77;;
5847;SDS011;8756;49.29324300;8.70599800;2022-12-05T01:56:37;67.73;;;27.33;;
5847;SDS011;8756;49.29324300;8.70599800;2022-12-05T01:59:07;79.50;;;27.97;;
5847;SDS011;8756;49.29324300;8.70599800;2022-12-05T02:01:35;61.53;;;25.70;;
5847;SDS011;8756;49.29324300;8.70599800;2022-12-05T02:04:01;77.10;;;26.20;;
5847;SDS011;8756;49.29324300;8.70599800;2022-12-05T02:06:27;61.43;;;27.97;;
5847;SDS011;8756;49.29324300;8.70599800;2022-12-05T02:08:54;65.37;;;26.47;;
5847;SDS011;8756;49.29324300;8.70599800;2022-12-05T02:11:20;66.93;;;27.87;;
5847;SDS011;8756;49.29324300;8.70599800;2022-12-05T02:13:58;62.37;;;25.73;;
5847;SDS011;8756;49.29324300;8.70599800;2022-12-05T02:17:04;61.87;;;24.07;;
5847;SDS011;8756;49.29324300;8.70599800;2022-12-05T02:19:54;59.30;;;23.57;;
5847;SDS011;8756;49.29324300;8.70599800;2022-12-05T02:25:58;66.80;;;24.20;;
5847;SDS011;8756;49.29324300;8.70599800;2022-12-05T02:32:10;58.60;;;24.40;;
5847;SDS011;8756;49.29324300;8.70599800;2022-12-05T02:34:55;67.90;;;25.40;;
5847;SDS011;8756;49.29324300;8.70599800;2022-12-05T02:37:41;65.87;;;25.70;;
5847;SDS011;8756;49.29324300;8.70599800;2022-12-05T02:40:10;71.63;;;26.20;;
5847;SDS011;8756;49.29324300;8.70599800;2022-12-05T02:45:42;62.93;;;27.13;;
5847;SDS011;8756;49.29324300;8.70599800;2022-12-05T02:48:13;57.57;;;23.67;;
5847;SDS011;8756;49.29324300;8.70599800;2022-12-05T02:50:41;59.67;;;25.20;;
5847;SDS011;8756;49.29324300;8.70599800;2022-12-05T02:53:10;59.77;;;23.60;;
5847;SDS011;8756;49.29324300;8.70599800;2022-12-05T02:55:41;59.53;;;24.10;;
5847;SDS011;8756;49.29324300;8.70599800;2022-12-05T02:58:20;60.30;;;25.87;;
5847;SDS011;8756;49.29324300;8.70599800;2022-12-05T03:00:56;70.20;;;23.73;;
5847;SDS011;8756;49.29324300;8.70599800;2022-12-05T03:03:23;64.63;;;23.87;;
5847;SDS011;8756;49.29324300;8.70599800;2022-12-05T03:08:35;51.23;;;21.57;;
5847;SDS011;8756;49.29324300;8.70599800;2022-12-05T03:11:08;62.73;;;24.83;;
5847;SDS011;8756;49.29324300;8.70599800;2022-12-05T03:13:41;58.50;;;23.60;;
5847;SDS011;8756;49.29324300;8.70599800;2022-12-05T03:16:17;48.43;;;22.00;;
5847;SDS011;8756;49.29324300;8.70599800;2022-12-05T03:18:54;55.43;;;24.30;;
5847;SDS011;8756;49.29324300;8.70599800;2022-12-05T03:21:33;65.27;;;22.50;;
5847;SDS011;8756;49.29324300;8.70599800;2022-12-05T03:24:10;53.17;;;23.00;;
5847;SDS011;8756;49.29324300;8.70599800;2022-12-05T03:32:30;58.80;;;21.80;;
5847;SDS011;8756;49.29324300;8.70599800;2022-12-05T03:35:19;59.13;;;23.93;;
5847;SDS011;8756;49.29324300;8.70599800;2022-12-05T03:43:24;50.93;;;22.60;;
5847;SDS011;8756;49.29324300;8.70599800;2022-12-05T03:56:53;59.27;;;24.90;;
5847;SDS011;8756;49.29324300;8.70599800;2022-12-05T04:01:58;68.47;;;24.57;;
5847;SDS011;8756;49.29324300;8.70599800;2022-12-05T04:04:37;54.93;;;21.93;;
5847;SDS011;8756;49.29324300;8.70599800;2022-12-05T04:07:12;64.00;;;23.57;;
5847;SDS011;8756;49.29324300;8.70599800;2022-12-05T04:09:45;61.30;;;24.23;;
5847;SDS011;8756;49.29324300;8.70599800;2022-12-05T04:12:18;60.13;;;23.83;;
5847;SDS011;8756;49.29324300;8.70599800;2022-12-05T04:14:51;53.37;;;21.70;;
5847;SDS011;8756;49.29324300;8.70599800;2022-12-05T04:17:28;64.33;;;24.67;;
5847;SDS011;8756;49.29324300;8.70599800;2022-12-05T04:20:14;53.90;;;22.50;;
5847;SDS011;8756;49.29324300;8.70599800;2022-12-05T04:23:04;63.30;;;24.10;;
5847;SDS011;8756;49.29324300;8.70599800;2022-12-05T04:25:39;57.50;;;24.23;;
5847;SDS011;8756;49.29324300;8.70599800;2022-12-05T04:31:21;60.90;;;24.17;;
5847;SDS011;8756;49.29324300;8.70599800;2022-12-05T04:33:54;53.93;;;23.00;;
5847;SDS011;8756;49.29324300;8.70599800;2022-12-05T04:36:31;57.13;;;23.40;;
5847;SDS011;8756;49.29324300;8.70599800;2022-12-05T04:41:38;58.67;;;23.50;;
5847;SDS011;8756;49.29324300;8.70599800;2022-12-05T04:44:15;60.07;;;24.23;;
5847;SDS011;8756;49.29324300;8.70599800;2022-12-05T04:46:44;51.10;;;21.00;;
5847;SDS011;8756;49.29324300;8.70599800;2022-12-05T04:49:15;68.17;;;25.30;;
5847;SDS011;8756;49.29324300;8.70599800;2022-12-05T04:51:46;65.77;;;25.67;;
5847;SDS011;8756;49.29324300;8.70599800;2022-12-05T04:57:12;56.13;;;22.80;;
5847;SDS011;8756;49.29324300;8.70599800;2022-12-05T04:59:58;61.60;;;22.10;;
5847;SDS011;8756;49.29324300;8.70599800;2022-12-05T05:02:26;65.57;;;25.90;;
5847;SDS011;8756;49.29324300;8.70599800;2022-12-05T05:05:02;59.73;;;24.03;;
5847;SDS011;8756;49.29324300;8.70599800;2022-12-05T05:07:42;62.20;;;23.87;;
5847;SDS011;8756;49.29324300;8.70599800;2022-12-05T05:10:15;60.40;;;24.20;;
5847;SDS011;8756;49.29324300;8.70599800;2022-12-05T05:12:58;56.93;;;22.47;;
5847;SDS011;8756;49.29324300;8.70599800;2022-12-05T05:15:23;56.97;;;23.30;;
5847;SDS011;8756;49.29324300;8.70599800;2022-12-05T05:17:49;53.70;;;23.67;;
5847;SDS011;8756;49.29324300;8.70599800;2022-12-05T05:20:15;60.93;;;22.40;;
5847;SDS011;8756;49.29324300;8.70599800;2022-12-05T05:22:51;52.20;;;22.27;;
5847;SDS011;8756;49.29324300;8.70599800;2022-12-05T05:25:22;56.63;;;22.70;;
5847;SDS011;8756;49.29324300;8.70599800;2022-12-05T05:27:53;46.97;;;22.33;;
5847;SDS011;8756;49.29324300;8.70599800;2022-12-05T05:30:21;57.67;;;23.90;;
5847;SDS011;8756;49.29324300;8.70599800;2022-12-05T05:32:48;61.57;;;22.60;;
5847;SDS011;8756;49.29324300;8.70599800;2022-12-05T05:35:14;53.17;;;22.00;;
5847;SDS011;8756;49.29324300;8.70599800;2022-12-05T05:37:40;54.37;;;23.90;;
5847;SDS011;8756;49.29324300;8.70599800;2022-12-05T05:40:07;66.37;;;23.80;;
5847;SDS011;8756;49.29324300;8.70599800;2022-12-05T05:42:35;55.40;;;23.27;;
5847;SDS011;8756;49.29324300;8.70599800;2022-12-05T05:45:07;60.43;;;21.33;;
5847;SDS011;8756;49.29324300;8.70599800;2022-12-05T05:47:34;62.43;;;23.63;;
5847;SDS011;8756;49.29324300;8.70599800;2022-12-05T05:50:00;59.47;;;23.10;;
5847;SDS011;8756;49.29324300;8.70599800;2022-12-05T05:52:26;60.70;;;23.47;;
5847;SDS011;8756;49.29324300;8.70599800;2022-12-05T05:54:51;63.43;;;22.83;;
5847;SDS011;8756;49.29324300;8.70599800;2022-12-05T05:57:17;67.93;;;25.17;;
5847;SDS011;8756;49.29324300;8.70599800;2022-12-05T05:59:43;56.57;;;24.17;;
5847;SDS011;8756;49.29324300;8.70599800;2022-12-05T06:02:08;59.37;;;21.80;;
5847;SDS011;8756;49.29324300;8.70599800;2022-12-05T06:04:34;57.90;;;22.00;;
5847;SDS011;8756;49.29324300;8.70599800;2022-12-05T06:07:00;61.23;;;24.10;;
5847;SDS011;8756;49.29324300;8.70599800;2022-12-05T06:09:25;61.57;;;23.00;;
5847;SDS011;8756;49.29324300;8.70599800;2022-12-05T06:11:51;57.40;;;24.40;;
5847;SDS011;8756;49.29324300;8.70599800;2022-12-05T06:14:17;51.67;;;21.97;;
5847;SDS011;8756;49.29324300;8.70599800;2022-12-05T06:16:42;63.90;;;24.90;;
5847;SDS011;8756;49.29324300;8.70599800;2022-12-05T06:19:08;53.70;;;21.23;;
5847;SDS011;8756;49.29324300;8.70599800;2022-12-05T06:21:34;54.60;;;21.77;;
5847;SDS011;8756;49.29324300;8.70599800;2022-12-05T06:23:59;68.37;;;22.73;;
5847;SDS011;8756;49.29324300;8.70599800;2022-12-05T06:26:25;66.03;;;23.90;;
5847;SDS011;8756;49.29324300;8.70599800;2022-12-05T06:28:51;57.67;;;23.77;;
5847;SDS011;8756;49.29324300;8.70599800;2022-12-05T06:31:18;48.30;;;20.97;;
5847;SDS011;8756;49.29324300;8.70599800;2022-12-05T06:33:48;67.73;;;22.23;;
5847;SDS011;8756;49.29324300;8.70599800;2022-12-05T06:36:14;57.13;;;20.80;;
5847;SDS011;8756;49.29324300;8.70599800;2022-12-05T06:38:44;62.70;;;22.90;;
5847;SDS011;8756;49.29324300;8.70599800;2022-12-05T06:41:13;54.23;;;23.90;;
5847;SDS011;8756;49.29324300;8.70599800;2022-12-05T06:43:42;60.23;;;23.53;;
5847;SDS011;8756;49.29324300;8.70599800;2022-12-05T06:46:09;64.37;;;22.67;;
5847;SDS011;8756;49.29324300;8.70599800;2022-12-05T06:48:37;65.60;;;23.70;;
5847;SDS011;8756;49.29324300;8.70599800;2022-12-05T06:51:03;52.33;;;22.00;;
5847;SDS011;8756;49.29324300;8.70599800;2022-12-05T06:53:31;52.70;;;21.70;;
5847;SDS011;8756;49.29324300;8.70599800;2022-12-05T06:55:57;48.80;;;23.00;;
5847;SDS011;8756;49.29324300;8.70599800;2022-12-05T06:58:29;48.47;;;21.07;;
5847;SDS011;8756;49.29324300;8.70599800;2022-12-05T07:00:58;47.20;;;20.97;;
5847;SDS011;8756;49.29324300;8.70599800;2022-12-05T07:03:42;54.07;;;21.93;;
5847;SDS011;8756;49.29324300;8.70599800;2022-12-05T07:06:08;48.43;;;21.80;;
5847;SDS011;8756;49.29324300;8.70599800;2022-12-05T07:08:34;50.40;;;22.47;;
5847;SDS011;8756;49.29324300;8.70599800;2022-12-05T07:11:01;46.27;;;22.03;;
5847;SDS011;8756;49.29324300;8.70599800;2022-12-05T07:13:27;53.60;;;21.53;;
5847;SDS011;8756;49.29324300;8.70599800;2022-12-05T07:15:53;49.60;;;21.93;;
5847;SDS011;8756;49.29324300;8.70599800;2022-12-05T07:18:19;54.63;;;22.57;;
5847;SDS011;8756;49.29324300;8.70599800;2022-12-05T07:20:44;50.83;;;23.03;;
5847;SDS011;8756;49.29324300;8.70599800;2022-12-05T07:23:24;52.50;;;21.77;;
5847;SDS011;8756;49.29324300;8.70599800;2022-12-05T07:25:50;46.70;;;20.93;;
5847;SDS011;8756;49.29324300;8.70599800;2022-12-05T07:28:16;42.00;;;18.53;;
5847;SDS011;8756;49.29324300;8.70599800;2022-12-05T07:30:41;48.50;;;22.33;;
5847;SDS011;8756;49.29324300;8.70599800;2022-12-05T07:33:07;42.23;;;20.70;;
5847;SDS011;8756;49.29324300;8.70599800;2022-12-05T07:35:33;44.60;;;21.10;;
5847;SDS011;8756;49.29324300;8.70599800;2022-12-05T07:37:59;47.47;;;21.90;;
5847;SDS011;8756;49.29324300;8.70599800;2022-12-05T07:40:24;44.63;;;23.93;;
5847;SDS011;8756;49.29324300;8.70599800;2022-12-05T07:42:50;46.97;;;20.37;;
5847;SDS011;8756;49.29324300;8.70599800;2022-12-05T07:45:17;45.33;;;21.37;;
5847;SDS011;8756;49.29324300;8.70599800;2022-12-05T07:47:46;41.73;;;22.20;;
5847;SDS011;8756;49.29324300;8.70599800;2022-12-05T07:50:12;38.70;;;19.90;;
5847;SDS011;8756;49.29324300;8.70599800;2022-12-05T07:52:39;39.20;;;20.47;;
5847;SDS011;8756;49.29324300;8.70599800;2022-12-05T07:55:05;44.07;;;20.83;;
5847;SDS011;8756;49.29324300;8.70599800;2022-12-05T07:57:31;55.93;;;21.97;;
5847;SDS011;8756;49.29324300;8.70599800;2022-12-05T07:59:57;39.33;;;21.57;;
5847;SDS011;8756;49.29324300;8.70599800;2022-12-05T08:02:23;40.97;;;21.60;;
5847;SDS011;8756;49.29324300;8.70599800;2022-12-05T08:04:49;40.00;;;19.07;;
5847;SDS011;8756;49.29324300;8.70599800;2022-12-05T08:07:15;42.43;;;19.83;;
5847;SDS011;8756;49.29324300;8.70599800;2022-12-05T08:09:40;40.57;;;20.20;;
5847;SDS011;8756;49.29324300;8.70599800;2022-12-05T08:12:06;39.33;;;19.90;;
5847;SDS011;8756;49.29324300;8.70599800;2022-12-05T08:14:32;42.80;;;20.77;;
5847;SDS011;8756;49.29324300;8.70599800;2022-12-05T08:16:58;42.47;;;22.43;;
5847;SDS011;8756;49.29324300;8.70599800;2022-12-05T08:19:23;37.67;;;20.53;;
5847;SDS011;8756;49.29324300;8.70599800;2022-12-05T08:21:49;44.90;;;22.20;;
5847;SDS011;8756;49.29324300;8.70599800;2022-12-05T08:24:16;39.77;;;20.40;;
5847;SDS011;8756;49.29324300;8.70599800;2022-12-05T08:26:42;41.10;;;22.30;;
5847;SDS011;8756;49.29324300;8.70599800;2022-12-05T08:29:12;41.90;;;21.83;;
5847;SDS011;8756;49.29324300;8.70599800;2022-12-05T08:31:40;35.30;;;19.60;;
5847;SDS011;8756;49.29324300;8.70599800;2022-12-05T08:34:11;38.90;;;20.10;;
5847;SDS011;8756;49.29324300;8.70599800;2022-12-05T08:36:38;40.50;;;20.43;;
5847;SDS011;8756;49.29324300;8.70599800;2022-12-05T08:39:05;39.00;;;20.87;;
5847;SDS011;8756;49.29324300;8.70599800;2022-12-05T08:41:32;33.57;;;19.37;;
5847;SDS011;8756;49.29324300;8.70599800;2022-12-05T08:43:59;37.80;;;20.07;;
5847;SDS011;8756;49.29324300;8.70599800;2022-12-05T08:46:28;43.40;;;21.87;;
5847;SDS011;8756;49.29324300;8.70599800;2022-12-05T08:48:55;40.17;;;19.83;;
5847;SDS011;8756;49.29324300;8.70599800;2022-12-05T08:51:21;40.77;;;19.40;;
5847;SDS011;8756;49.29324300;8.70599800;2022-12-05T08:53:47;40.00;;;19.67;;
5847;SDS011;8756;49.29324300;8.70599800;2022-12-05T08:56:13;38.00;;;19.57;;
5847;SDS011;8756;49.29324300;8.70599800;2022-12-05T08:58:39;38.23;;;19.60;;
5847;SDS011;8756;49.29324300;8.70599800;2022-12-05T09:01:09;36.53;;;20.67;;
5847;SDS011;8756;49.29324300;8.70599800;2022-12-05T09:03:38;40.80;;;18.87;;
5847;SDS011;8756;49.29324300;8.70599800;2022-12-05T09:06:05;35.63;;;19.97;;
5847;SDS011;8756;49.29324300;8.70599800;2022-12-05T09:08:33;36.00;;;20.23;;
5847;SDS011;8756;49.29324300;8.70599800;2022-12-05T09:10:59;37.90;;;20.33;;
5847;SDS011;8756;49.29324300;8.70599800;2022-12-05T09:13:32;36.47;;;19.10;;
5847;SDS011;8756;49.29324300;8.70599800;2022-12-05T09:15:58;37.33;;;20.83;;
5847;SDS011;8756;49.29324300;8.70599800;2022-12-05T09:18:29;41.93;;;20.13;;
5847;SDS011;8756;49.29324300;8.70599800;2022-12-05T09:20:55;39.60;;;20.20;;
5847;SDS011;8756;49.29324300;8.70599800;2022-12-05T09:23:20;41.37;;;20.00;;
5847;SDS011;8756;49.29324300;8.70599800;2022-12-05T09:25:51;42.87;;;21.90;;
5847;SDS011;8756;49.29324300;8.70599800;2022-12-05T09:28:22;38.03;;;20.07;;
5847;SDS011;8756;49.29324300;8.70599800;2022-12-05T09:30:57;41.57;;;22.10;;
5847;SDS011;8756;49.29324300;8.70599800;2022-12-05T09:33:29;33.43;;;18.23;;
5847;SDS011;8756;49.29324300;8.70599800;2022-12-05T09:35:56;38.20;;;19.20;;
5847;SDS011;8756;49.29324300;8.70599800;2022-12-05T09:38:22;42.27;;;21.03;;
5847;SDS011;8756;49.29324300;8.70599800;2022-12-05T09:41:13;41.10;;;21.83;;
5847;SDS011;8756;49.29324300;8.70599800;2022-12-05T09:44:07;38.17;;;20.87;;
5847;SDS011;8756;49.29324300;8.70599800;2022-12-05T09:50:09;41.50;;;19.73;;
5847;SDS011;8756;49.29324300;8.70599800;2022-12-05T09:52:41;41.90;;;21.10;;
5847;SDS011;8756;49.29324300;8.70599800;2022-12-05T09:55:15;40.63;;;19.87;;
5847;SDS011;8756;49.29324300;8.70599800;2022-12-05T09:57:47;37.90;;;20.30;;
5847;SDS011;8756;49.29324300;8.70599800;2022-12-05T10:00:22;37.57;;;19.80;;
5847;SDS011;8756;49.29324300;8.70599800;2022-12-05T10:08:15;39.80;;;19.77;;
5847;SDS011;8756;49.29324300;8.70599800;2022-12-05T10:11:23;36.60;;;18.90;;
5847;SDS011;8756;49.29324300;8.70599800;2022-12-05T10:14:20;34.93;;;17.30;;
5847;SDS011;8756;49.29324300;8.70599800;2022-12-05T10:17:14;41.33;;;19.77;;
5847;SDS011;8756;49.29324300;8.70599800;2022-12-05T10:20:02;38.27;;;18.70;;
5847;SDS011;8756;49.29324300;8.70599800;2022-12-05T10:25:11;38.63;;;19.67;;
5847;SDS011;8756;49.29324300;8.70599800;2022-12-05T10:27:45;39.17;;;20.03;;
5847;SDS011;8756;49.29324300;8.70599800;2022-12-05T10:30:23;41.10;;;19.77;;
5847;SDS011;8756;49.29324300;8.70599800;2022-12-05T10:35:29;38.07;;;18.90;;
5847;SDS011;8756;49.29324300;8.70599800;2022-12-05T10:38:03;36.97;;;18.60;;
5847;SDS011;8756;49.29324300;8.70599800;2022-12-05T10:40:44;36.27;;;18.17;;
5847;SDS011;8756;49.29324300;8.70599800;2022-12-05T10:43:15;34.83;;;18.53;;
5847;SDS011;8756;49.29324300;8.70599800;2022-12-05T10:45:49;36.70;;;17.27;;
5847;SDS011;8756;49.29324300;8.70599800;2022-12-05T10:48:16;40.93;;;20.77;;
5847;SDS011;8756;49.29324300;8.70599800;2022-12-05T10:50:44;40.60;;;21.20;;
5847;SDS011;8756;49.29324300;8.70599800;2022-12-05T10:55:52;39.67;;;18.50;;
5847;SDS011;8756;49.29324300;8.70599800;2022-12-05T10:58:19;38.33;;;19.30;;
5847;SDS011;8756;49.29324300;8.70599800;2022-12-05T11:00:52;40.57;;;19.00;;
5847;SDS011;8756;49.29324300;8.70599800;2022-12-05T11:03:25;35.83;;;18.33;;
5847;SDS011;8756;49.29324300;8.70599800;2022-12-05T11:05:53;42.13;;;20.50;;
5847;SDS011;8756;49.29324300;8.70599800;2022-12-05T11:08:26;40.13;;;18.80;;
5847;SDS011;8756;49.29324300;8.70599800;2022-12-05T11:10:59;36.90;;;18.77;;
5847;SDS011;8756;49.29324300;8.70599800;2022-12-05T11:13:31;35.97;;;17.17;;
5847;SDS011;8756;49.29324300;8.70599800;2022-12-05T11:15:58;37.03;;;20.50;;
5847;SDS011;8756;49.29324300;8.70599800;2022-12-05T11:21:08;33.27;;;18.67;;
5847;SDS011;8756;49.29324300;8.70599800;2022-12-05T11:23:37;39.90;;;18.90;;
5847;SDS011;8756;49.29324300;8.70599800;2022-12-05T11:26:05;38.27;;;18.60;;
5847;SDS011;8756;49.29324300;8.70599800;2022-12-05T11:28:59;37.40;;;18.80;;
5847;SDS011;8756;49.29324300;8.70599800;2022-12-05T11:31:26;36.90;;;19.67;;
5847;SDS011;8756;49.29324300;8.70599800;2022-12-05T11:34:09;36.27;;;18.60;;
5847;SDS011;8756;49.29324300;8.70599800;2022-12-05T11:36:42;39.10;;;18.63;;
5847;SDS011;8756;49.29324300;8.70599800;2022-12-05T11:39:18;37.47;;;19.00;;
5847;SDS011;8756;49.29324300;8.70599800;2022-12-05T11:44:58;32.23;;;18.03;;
5847;SDS011;8756;49.29324300;8.70599800;2022-12-05T11:50:36;40.33;;;21.23;;
5847;SDS011;8756;49.29324300;8.70599800;2022-12-05T11:59:16;37.77;;;19.47;;
5847;SDS011;8756;49.29324300;8.70599800;2022-12-05T12:04:54;35.70;;;18.63;;
5847;SDS011;8756;49.29324300;8.70599800;2022-12-05T12:07:43;37.40;;;19.10;;
5847;SDS011;8756;49.29324300;8.70599800;2022-12-05T12:11:12;40.97;;;19.17;;
5847;SDS011;8756;49.29324300;8.70599800;2022-12-05T12:14:25;38.00;;;19.17;;
5847;SDS011;8756;49.29324300;8.70599800;2022-12-05T12:33:57;39.03;;;20.83;;
5847;SDS011;8756;49.29324300;8.70599800;2022-12-05T12:36:32;37.67;;;20.23;;
5847;SDS011;8756;49.29324300;8.70599800;2022-12-05T12:42:24;38.00;;;18.93;;
5847;SDS011;8756;49.29324300;8.70599800;2022-12-05T12:50:18;37.53;;;18.93;;
5847;SDS011;8756;49.29324300;8.70599800;2022-12-05T13:03:51;34.30;;;18.63;;
5847;SDS011;8756;49.29324300;8.70599800;2022-12-05T13:09:37;37.60;;;18.60;;
5847;SDS011;8756;49.29324300;8.70599800;2022-12-05T13:12:13;35.90;;;17.03;;
5847;SDS011;8756;49.29324300;8.70599800;2022-12-05T13:14:46;42.63;;;20.07;;
5847;SDS011;8756;49.29324300;8.70599800;2022-12-05T13:17:18;39.80;;;17.57;;
5847;SDS011;8756;49.29324300;8.70599800;2022-12-05T13:19:50;34.80;;;18.43;;
5847;SDS011;8756;49.29324300;8.70599800;2022-12-05T13:22:19;35.80;;;17.43;;
5847;SDS011;8756;49.29324300;8.70599800;2022-12-05T13:24:50;35.03;;;17.80;;
5847;SDS011;8756;49.29324300;8.70599800;2022-12-05T13:27:18;36.13;;;16.70;;
5847;SDS011;8756;49.29324300;8.70599800;2022-12-05T13:29:49;37.90;;;19.23;;
5847;SDS011;8756;49.29324300;8.70599800;2022-12-05T13:32:32;34.47;;;16.50;;
5847;SDS011;8756;49.29324300;8.70599800;2022-12-05T13:38:31;35.10;;;17.00;;
5847;SDS011;8756;49.29324300;8.70599800;2022-12-05T13:41:36;32.37;;;17.03;;
5847;SDS011;8756;49.29324300;8.70599800;2022-12-05T13:47:25;30.93;;;16.13;;
5847;SDS011;8756;49.29324300;8.70599800;2022-12-05T13:50:13;32.00;;;17.33;;
5847;SDS011;8756;49.29324300;8.70599800;2022-12-05T13:56:44;32.27;;;15.77;;
5847;SDS011;8756;49.29324300;8.70599800;2022-12-05T13:58:46;29.60;;;14.60;;
5847;SDS011;8756;49.29324300;8.70599800;2022-12-05T14:07:01;32.30;;;15.07;;
5847;SDS011;8756;49.29324300;8.70599800;2022-12-05T14:09:02;30.00;;;15.50;;
5847;SDS011;8756;49.29324300;8.70599800;2022-12-05T14:22:41;29.63;;;16.77;;
5847;SDS011;8756;49.29324300;8.70599800;2022-12-05T14:25:49;24.73;;;14.47;;
5847;SDS011;8756;49.29324300;8.70599800;2022-12-05T14:36:53;32.87;;;15.80;;
5847;SDS011;8756;49.29324300;8.70599800;2022-12-05T14:39:41;27.23;;;14.37;;
5847;SDS011;8756;49.29324300;8.70599800;2022-12-05T14:42:20;26.70;;;15.13;;
5847;SDS011;8756;49.29324300;8.70599800;2022-12-05T14:44:57;25.30;;;13.30;;
5847;SDS011;8756;49.29324300;8.70599800;2022-12-05T14:47:29;29.37;;;14.53;;
5847;SDS011;8756;49.29324300;8.70599800;2022-12-05T14:55:45;24.60;;;13.27;;
5847;SDS011;8756;49.29324300;8.70599800;2022-12-05T14:58:17;25.47;;;12.23;;
5847;SDS011;8756;49.29324300;8.70599800;2022-12-05T15:04:02;19.23;;;10.37;;
5847;SDS011;8756;49.29324300;8.70599800;2022-12-05T15:06:49;19.17;;;10.10;;
5847;SDS011;8756;49.29324300;8.70599800;2022-12-05T15:12:31;21.13;;;10.20;;
5847;SDS011;8756;49.29324300;8.70599800;2022-12-05T15:23:57;21.30;;;11.97;;
5847;SDS011;8756;49.29324300;8.70599800;2022-12-05T15:26:26;17.47;;;10.83;;
5847;SDS011;8756;49.29324300;8.70599800;2022-12-05T15:29:05;23.27;;;11.37;;
5847;SDS011;8756;49.29324300;8.70599800;2022-12-05T15:34:58;19.40;;;10.20;;
5847;SDS011;8756;49.29324300;8.70599800;2022-12-05T15:40:09;19.43;;;9.60;;
5847;SDS011;8756;49.29324300;8.70599800;2022-12-05T15:47:42;17.10;;;8.07;;
5847;SDS011;8756;49.29324300;8.70599800;2022-12-05T15:50:25;19.57;;;8.63;;
5847;SDS011;8756;49.29324300;8.70599800;2022-12-05T15:56:04;16.67;;;9.70;;
5847;SDS011;8756;49.29324300;8.70599800;2022-12-05T16:01:44;16.93;;;9.13;;
5847;SDS011;8756;49.29324300;8.70599800;2022-12-05T16:04:50;18.60;;;9.57;;
5847;SDS011;8756;49.29324300;8.70599800;2022-12-05T16:07:14;16.70;;;8.97;;
5847;SDS011;8756;49.29324300;8.70599800;2022-12-05T16:09:41;17.50;;;8.73;;
5847;SDS011;8756;49.29324300;8.70599800;2022-12-05T16:12:26;16.40;;;8.27;;
5847;SDS011;8756;49.29324300;8.70599800;2022-12-05T16:14:55;17.67;;;9.83;;
5847;SDS011;8756;49.29324300;8.70599800;2022-12-05T16:17:39;19.03;;;9.10;;
5847;SDS011;8756;49.29324300;8.70599800;2022-12-05T16:22:52;17.37;;;8.37;;
5847;SDS011;8756;49.29324300;8.70599800;2022-12-05T16:25:22;18.30;;;10.07;;
5847;SDS011;8756;49.29324300;8.70599800;2022-12-05T16:27:59;15.77;;;8.13;;
5847;SDS011;8756;49.29324300;8.70599800;2022-12-05T16:30:38;16.50;;;7.73;;
5847;SDS011;8756;49.29324300;8.70599800;2022-12-05T16:33:12;16.23;;;8.60;;
5847;SDS011;8756;49.29324300;8.70599800;2022-12-05T16:38:11;17.93;;;9.63;;